Flight Track Log - Related Links

Times and Time Zones

All times are in EDT time to prevent confusion due to time zone crossing. See the N818CD flight status page for this flight to view local times or setup timezone preferences in your user account.

Time Position Orientation Groundspeed Altitude Reporting Facility
EDT Latitude Longitude Course Direction KTS MPH feet Rate Location/Type
Sat 10:48:27 AM 42.1500 -87.8667 160° South 102 117 2,300  Level Chicago TRACON
Sat 10:48:27 AM 42.1500 -87.8667 160° South 102 117 2,300 585 Level Chicago TRACON
Sat 10:49:08 AM 42.1631 -87.8614 17° North 96 110 2,700 585 Climbing Chicago Center
Sat 10:49:08 AM 42.1631 -87.8614 17° North 96 110 2,700 484 Level Chicago Center
Sat 10:50:10 AM 42.1872 -87.8433 29° Northeast 99 114 3,200 484 Climbing Chicago Center
Sat 10:50:10 AM 42.1872 -87.8433 29° Northeast 99 114 3,200 677 Level Chicago Center
Sat 10:51:12 AM 42.1958 -87.8714 293° West 93 107 3,900 677 Climbing Chicago Center
Sat 10:51:12 AM 42.1958 -87.8714 293° West 93 107 3,900 581 Level Chicago Center
Sat 10:52:14 AM 42.1989 -87.9106 276° West 89 102 4,500 581 Climbing Chicago Center
Sat 10:52:14 AM 42.1989 -87.9106 276° West 89 102 4,500 492 Level Chicago Center
Sat 10:53:00 AM 41.9674 -87.7933 160° South  Level Estimated
Sat 10:53:00 AM 41.9674 -87.7933 160° South  Level Estimated
Sat 10:53:15 AM 42.1922 -87.9383 252° West 90 104 5,000  Level Chicago Center
Sat 10:53:15 AM 42.1922 -87.9383 252° West 90 104 5,000 484 Level Chicago Center
Sat 10:54:17 AM 42.1733 -87.9583 218° Southwest 90 104 5,500 484 Climbing Chicago Center
Sat 10:54:17 AM 42.1733 -87.9583 218° Southwest 90 104 5,500 484 Level Chicago Center
Sat 10:55:19 AM 42.1522 -87.9539 171° South 77 89 6,000 484 Climbing Chicago Center
Sat 10:55:19 AM 42.1522 -87.9539 171° South 77 89 6,000 97 Level Chicago Center
Sat 10:56:21 AM 42.1247 -87.9556 183° South 96 110 6,100 97 Climbing Chicago Center
Sat 10:56:21 AM 42.1247 -87.9556 183° South 96 110 6,100  Level Chicago Center
Sat 10:56:58 AM 42.1000 -87.9500 171° South 115 132 6,100  Level Chicago TRACON
Sat 10:56:58 AM 42.1000 -87.9500 171° South 115 132 6,100  Level Chicago TRACON
Sat 10:57:58 AM 42.0667 -87.9500 180° South 114 131 6,100  Level Chicago TRACON
Sat 10:57:58 AM 42.0667 -87.9500 180° South 114 131 6,100  Level Chicago TRACON
Sat 10:58:58 AM 42.0333 -87.9500 180° South 110 127 6,100  Level Chicago TRACON
Sat 10:58:58 AM 42.0333 -87.9500 180° South 110 127 6,100  Level Chicago TRACON
Sat 10:59:52 AM 42.0000 -87.9667 200° South 118 136 6,100  Level Chicago TRACON
Sat 10:59:52 AM 42.0000 -87.9667 200° South 118 136 6,100  Level Chicago TRACON
Sat 11:00:47 AM 41.9833 -87.9667 180° South 125 144 6,100  Level Chicago TRACON
Sat 11:00:47 AM 41.9833 -87.9667 180° South 125 144 6,100  Level Chicago TRACON
Sat 11:01:47 AM 41.9500 -87.9500 160° South 120 138 6,100  Level Chicago TRACON
Sat 11:01:47 AM 41.9500 -87.9500 160° South 120 138 6,100  Level Chicago TRACON
Sat 11:02:41 AM 41.9167 -87.9500 180° South 110 127 6,100  Level Chicago TRACON
Sat 11:02:41 AM 41.9167 -87.9500 180° South 110 127 6,100 364 Level Chicago TRACON
Sat 11:03:47 AM 41.9000 -87.9333 143° Southeast 100 115 6,500 364 Climbing Chicago TRACON
Sat 11:03:47 AM 41.9000 -87.9333 143° Southeast 100 115 6,500 500 Level Chicago TRACON
Sat 11:04:47 AM 41.8667 -87.9167 160° South 92 106 7,000 500 Climbing Chicago TRACON
Sat 11:04:47 AM 41.8667 -87.9167 160° South 92 106 7,000 120 Level Chicago TRACON
Sat 11:05:37 AM 41.8492 -87.9050 154° Southeast 99 114 7,100 120 Climbing Chicago Center
Sat 11:05:37 AM 41.8492 -87.9050 154° Southeast 99 114 7,100  Level Chicago Center
Sat 11:06:39 AM 41.8175 -87.8892 160° South 117 135 7,100  Level Chicago Center
Sat 11:06:39 AM 41.8175 -87.8892 160° South 117 135 7,100  Level Chicago Center
Sat 11:07:41 AM 41.7867 -87.8725 158° South 120 138 7,100  Level Chicago Center
Sat 11:07:41 AM 41.7867 -87.8725 158° South 120 138 7,100 -97 Level Chicago Center
Sat 11:08:43 AM 41.7539 -87.8644 170° South 121 139 7,000 -97 Descending Chicago Center
Sat 11:08:43 AM 41.7539 -87.8644 170° South 121 139 7,000 97 Level Chicago Center
Sat 11:09:45 AM 41.7156 -87.8564 171° South 118 136 7,100 97 Climbing Chicago Center
Sat 11:09:45 AM 41.7156 -87.8564 171° South 118 136 7,100  Level Chicago Center
Sat 11:10:47 AM 41.6828 -87.8489 170° South 119 137 7,100  Level Chicago Center
Sat 11:10:47 AM 41.6828 -87.8489 170° South 119 137 7,100 -97 Level Chicago Center
Sat 11:11:49 AM 41.6514 -87.8414 170° South 117 135 7,000 -97 Descending Chicago Center
Sat 11:11:49 AM 41.6514 -87.8414 170° South 117 135 7,000  Level Chicago Center
Sat 11:12:50 AM 41.6197 -87.8347 171° South 117 135 7,000  Level Chicago Center
Sat 11:12:50 AM 41.6197 -87.8347 171° South 117 135 7,000  Level Chicago Center
Sat 11:13:52 AM 41.5900 -87.8275 170° South 111 128 7,000  Level Chicago Center
Sat 11:13:52 AM 41.5900 -87.8275 170° South 111 128 7,000  Level Chicago Center
Sat 11:14:54 AM 41.5600 -87.8217 172° South 109 125 7,000  Level Chicago Center
Sat 11:14:54 AM 41.5600 -87.8217 172° South 109 125 7,000  Level Chicago Center
Sat 11:15:56 AM 41.5256 -87.8150 172° South 106 122 7,000  Level Chicago Center
Sat 11:15:56 AM 41.5256 -87.8150 172° South 106 122 7,000  Level Chicago Center
Sat 11:16:58 AM 41.4964 -87.8078 169° South 106 122 7,000  Level Chicago Center
Sat 11:16:58 AM 41.4964 -87.8078 169° South 106 122 7,000  Level Chicago Center
Sat 11:18:00 AM 41.4672 -87.8025 172° South 107 123 7,000  Level Chicago Center
Sat 11:18:00 AM 41.4672 -87.8025 172° South 107 123 7,000  Level Chicago Center
Sat 11:19:02 AM 41.4381 -87.7967 171° South 106 122 7,000  Level Chicago Center
Sat 11:19:02 AM 41.4381 -87.7967 171° South 106 122 7,000  Level Chicago Center
Sat 11:20:03 AM 41.4086 -87.7903 171° South 107 123 7,000  Level Chicago Center
Sat 11:20:03 AM 41.4086 -87.7903 171° South 107 123 7,000  Level Chicago Center
Sat 11:26:14 AM 41.2469 -87.6739 152° Southeast 106 122 7,000 14 Level Chicago Center
Sat 11:27:16 AM 41.2200 -87.6567 154° Southeast 108 124 7,100  Climbing Chicago Center
Sat 11:28:18 AM 41.1922 -87.6389 154° Southeast 110 127 7,000 -49 Descending Chicago Center
Sat 11:29:19 AM 41.1597 -87.6183 155° Southeast 109 125 7,000  Level Chicago Center
Sat 11:30:21 AM 41.1325 -87.6014 155° Southeast 110 127 7,000  Level Chicago Center
Sat 11:31:23 AM 41.1061 -87.5844 154° Southeast 107 123 7,000  Level Chicago Center
Sat 11:32:25 AM 41.0794 -87.5681 155° Southeast 106 122 7,000  Level Chicago Center
Sat 11:33:26 AM 41.0511 -87.5522 157° South 109 125 7,000  Level Chicago Center
Sat 11:34:28 AM 41.0239 -87.5367 157° South 108 124 7,000  Level Chicago Center
Sat 11:35:30 AM 40.9906 -87.5192 158° South 108 124 7,000 48 Level Chicago Center
Sat 11:36:32 AM 40.9628 -87.5028 156° South 108 124 7,100 49 Climbing Chicago Center
Sat 11:37:33 AM 40.9344 -87.4864 156° South 110 127 7,100  Level Chicago Center
Sat 11:38:35 AM 40.9056 -87.4706 157° South 111 128 7,100  Level Chicago Center
Sat 11:39:37 AM 40.8769 -87.4544 157° South 112 129 7,100  Level Chicago Center
Sat 11:40:43 AM 40.8392 -87.4375 161° South 113 130 7,100  Level Chicago Center
Sat 11:41:38 AM 40.8144 -87.4275 163° South 110 127 7,100  Level Chicago Center
Sat 11:42:32 AM 40.7836 -87.4169 165° South 116 133 7,100 52 Level Chicago Center
Sat 11:43:33 AM 40.7531 -87.4036 162° South 118 136 7,200 347 Climbing Chicago Center
Sat 11:44:33 AM 40.7239 -87.3961 169° South 104 120 7,800 403 Climbing Chicago Center
Sat 11:45:47 AM 40.7033 -87.3858 159° South 84 97 8,100 197 Climbing Chicago Center
Sat 11:46:35 AM 40.6747 -87.3786 169° South 100 115 8,200 49 Climbing Chicago Center
Sat 11:47:50 AM 40.6350 -87.3706 171° South 115 132 8,200  Level Chicago Center
Sat 11:48:36 AM 40.6106 -87.3658 172° South 116 133 8,200  Level Chicago Center
Sat 11:49:54 AM 40.5708 -87.3608 175° South 117 135 8,200  Level Chicago Center
Sat 11:50:43 AM 40.5417 -87.3636 184° South 120 138 8,200  Level Chicago Center
Sat 11:51:44 AM 40.5081 -87.3692 187° South 119 137 8,200  Level Chicago Center
Sat 11:52:44 AM 40.4783 -87.3781 193° South 117 135 8,200  Level Chicago Center
Sat 11:53:45 AM 40.4447 -87.3836 187° South 120 138 8,200  Level Chicago Center
Sat 11:54:40 AM 40.4231 -87.3575 137° Southeast 118 136 8,200  Level Chicago Center
Sat 11:55:40 AM 40.3994 -87.3231 132° Southeast 120 138 8,200  Level Chicago Center
Sat 11:56:41 AM 40.3778 -87.2914 132° Southeast 123 142 8,200  Level Chicago Center
Sat 11:57:41 AM 40.3583 -87.2547 125° Southeast 117 135 8,200 -50 Level Chicago Center
Sat 11:58:42 AM 40.3389 -87.2206 127° Southeast 115 132 8,100  Descending Chicago Center
Sat 11:59:43 AM 40.3214 -87.1864 124° Southeast 116 133 8,200 66 Climbing Chicago Center
Sat 12:00:13 PM 40.3144 -87.1758 131° Southeast 115 132 8,200 100 Level Chicago Center
Sat 12:00:43 PM 40.3000 -87.1522 129° Southeast 114 131 8,300  Climbing Chicago Center
Sat 12:01:15 PM 40.2944 -87.1436 130° Southeast 115 132 8,200 -128 Descending Chicago Center
Sat 12:02:17 PM 40.2683 -87.1061 132° Southeast 113 130 8,100 48 Descending Chicago Center
Sat 12:03:19 PM 40.2469 -87.0753 132° Southeast 114 131 8,300 48 Climbing Chicago Center
Sat 12:04:21 PM 40.2253 -87.0383 128° Southeast 125 144 8,200 -49 Descending Chicago Center
Sat 12:05:22 PM 40.2047 -87.0053 129° Southeast 121 139 8,200  Level Chicago Center
Sat 12:06:24 PM 40.1836 -86.9731 131° Southeast 118 136 8,200  Level Chicago Center
Sat 12:07:26 PM 40.1608 -86.9322 126° Southeast 115 132 8,200  Level Chicago Center
Sat 12:08:28 PM 40.1419 -86.9000 127° Southeast 112 129 8,200  Level Chicago Center
Sat 12:09:30 PM 40.1228 -86.8711 131° Southeast 107 123 8,200  Level Chicago Center
Sat 12:10:32 PM 40.1022 -86.8406 131° Southeast 110 127 8,200 48 Level Chicago Center
Sat 12:11:34 PM 40.0831 -86.8108 130° Southeast 106 122 8,300 -145 Climbing Chicago Center
Sat 12:12:36 PM 40.0636 -86.7814 131° Southeast 107 123 7,900 -432 Descending Chicago Center
Sat 12:13:39 PM 40.0389 -86.7431 130° Southeast 111 128 7,400 -432 Descending Indianapolis Center
Sat 12:14:41 PM 40.0206 -86.7125 128° Southeast 110 127 7,000 -439 Descending Indianapolis Center
Sat 12:15:42 PM 40.0028 -86.6814 127° Southeast 107 123 6,500 -443 Descending Indianapolis Center
Sat 12:16:43 PM 39.9842 -86.6481 126° Southeast 111 128 6,100 -244 Descending Indianapolis Center
Sat 12:17:45 PM 39.9658 -86.6153 126° Southeast 113 130 6,000 -98 Descending Indianapolis Center
Sat 12:18:46 PM 39.9450 -86.5811 128° Southeast 118 136 5,900 -197 Descending Indianapolis Center
Sat 12:19:47 PM 39.9261 -86.5483 127° Southeast 115 132 5,600 -293 Descending Indianapolis Center
Sat 12:20:49 PM 39.9067 -86.5167 129° Southeast 113 130 5,300 -293 Descending Indianapolis Center
Sat 12:21:50 PM 39.8831 -86.4783 129° Southeast 113 130 5,000 -344 Descending Indianapolis Center
Sat 12:22:51 PM 39.8644 -86.4458 127° Southeast 113 130 4,600 -341 Descending Indianapolis Center
Sat 12:23:53 PM 39.8444 -86.4122 128° Southeast 114 131 4,300 -244 Descending Indianapolis Center
Sat 12:24:54 PM 39.8239 -86.3767 127° Southeast 119 137 4,100 -98 Descending Indianapolis Center
Sat 12:25:55 PM 39.7994 -86.3494 139° Southeast 118 136 4,100 49 Level Indianapolis Center
Sat 12:26:57 PM 39.7756 -86.3233 140° Southeast 115 132 4,200 49 Climbing Indianapolis Center
Sat 12:27:58 PM 39.7517 -86.2956 138° Southeast 115 132 4,200 49 Level Indianapolis Center
Sat 12:28:59 PM 39.7258 -86.2650 138° Southeast 115 132 4,300 98 Climbing Indianapolis Center
Sat 12:30:01 PM 39.7014 -86.2367 138° Southeast 115 132 4,400  Climbing Indianapolis Center
Sat 12:31:02 PM 39.6764 -86.2078 138° Southeast 118 136 4,300 -148 Descending Indianapolis Center
Sat 12:32:03 PM 39.6531 -86.1742 132° Southeast 122 140 4,100 -98 Descending Indianapolis Center
Sat 12:33:05 PM 39.6294 -86.1475 139° Southeast 119 137 4,100  Level Indianapolis Center
Sat 12:34:06 PM 39.5986 -86.1128 139° Southeast 119 137 4,100  Level Indianapolis Center
Sat 12:35:08 PM 39.5742 -86.0817 136° Southeast 122 140 4,100  Level Indianapolis Center
Sat 12:36:09 PM 39.5531 -86.0472 128° Southeast 123 142 4,100  Level Indianapolis Center
Sat 12:37:10 PM 39.5325 -86.0128 128° Southeast 122 140 4,100 -244 Level Indianapolis Center
Sat 12:38:12 PM 39.5106 -85.9778 129° Southeast 123 142 3,600 -537 Descending Indianapolis Center
Sat 12:39:13 PM 39.4883 -85.9425 129° Southeast 125 144 3,000 -293 Descending Indianapolis Center
Sat 12:40:15 PM 39.4692 -85.9078 126° Southeast 123 142 3,000  Level Indianapolis Center
Sat 12:41:16 PM 39.4547 -85.8711 117° Southeast 118 136 3,000  Level Indianapolis Center
Sat 12:42:18 PM 39.4369 -85.8269 118° Southeast 116 133 3,000  Level Indianapolis Center
Sat 12:43:19 PM 39.4211 -85.7911 120° Southeast 116 133 3,000  Level Indianapolis Center
Sat 12:44:21 PM 39.4039 -85.7569 123° Southeast 115 132 3,000  Level Indianapolis Center
Sat 12:45:22 PM 39.3728 -85.7750 204° Southwest 117 135 3,000 -246 Level Indianapolis Center
Sat 12:46:23 PM 39.3475 -85.7986 216° Southwest 112 129 2,500 -390 Descending Indianapolis Center
Sat 12:47:25 PM 39.3236 -85.8183 213° Southwest 109 125 2,200 -244 Descending Indianapolis Center
Sat 12:48:26 PM 39.3072 -85.8372 222° Southwest 96 110 2,000 -293 Descending Indianapolis Center
Sat 12:49:28 PM 39.2897 -85.8650 231° Southwest 92 106 1,600 -387 Descending Indianapolis Center

Login

Don't have an account? Register now (free) for customized features, flight alerts, and more!